createdAt,value
2022-08-14T00:00:54.383Z,11.82
2022-08-14T00:01:55.307Z,17.30
2022-08-14T00:02:52.518Z,13.55
2022-08-14T00:03:49.787Z,15.27
2022-08-14T00:04:50.128Z,12.43
2022-08-14T00:05:47.977Z,13.35
2022-08-14T00:06:55.003Z,14.18
2022-08-14T00:07:53.796Z,15.38
2022-08-14T00:08:53.024Z,13.40
2022-08-14T00:10:02.518Z,12.73
2022-08-14T00:11:06.466Z,11.80
2022-08-14T00:12:06.049Z,13.55
2022-08-14T00:13:23.726Z,13.50
2022-08-14T00:14:20.662Z,12.45
2022-08-14T00:15:43.341Z,16.73
2022-08-14T00:16:45.032Z,14.85
2022-08-14T00:17:47.283Z,13.57
2022-08-14T00:19:06.578Z,14.48
2022-08-14T00:20:02.137Z,14.65
2022-08-14T00:21:11.274Z,13.23
2022-08-14T00:22:08.220Z,13.32
2022-08-14T00:23:12.059Z,11.25
2022-08-14T00:24:13.897Z,12.55
2022-08-14T00:25:20.248Z,13.65
2022-08-14T00:26:23.231Z,14.70
2022-08-14T00:28:18.333Z,13.38
2022-08-14T00:29:15.303Z,13.25
2022-08-14T00:30:14.409Z,11.25
2022-08-14T00:31:14.990Z,14.63
2022-08-14T00:32:52.938Z,13.90
2022-08-14T00:33:39.342Z,12.50
2022-08-14T00:34:48.205Z,14.15
2022-08-14T00:36:36.247Z,13.60
2022-08-14T00:37:03.822Z,15.10
2022-08-14T00:38:00.854Z,13.10
2022-08-14T00:38:57.754Z,16.35
2022-08-14T00:39:54.475Z,14.95
2022-08-14T00:40:51.402Z,14.45
2022-08-14T00:41:51.449Z,13.88
2022-08-14T00:42:55.194Z,13.27
2022-08-14T00:43:53.074Z,12.50
2022-08-14T00:44:55.547Z,13.57
2022-08-14T00:45:52.839Z,13.48
2022-08-14T00:46:49.608Z,18.23
2022-08-14T00:47:48.649Z,13.48
2022-08-14T00:48:45.265Z,13.30
2022-08-14T00:49:45.982Z,14.07
2022-08-14T00:50:45.202Z,16.90
2022-08-14T00:51:44.244Z,15.80
2022-08-14T00:52:41.531Z,15.35
2022-08-14T00:53:40.155Z,15.52
2022-08-14T00:54:40.498Z,17.38
2022-08-14T00:55:41.424Z,14.98
2022-08-14T00:56:39.669Z,15.35
2022-08-14T00:57:36.796Z,15.30
2022-08-14T00:58:36.196Z,17.65
2022-08-14T00:59:41.746Z,16.63
2022-08-14T01:00:47.532Z,14.35
2022-08-14T01:01:49.216Z,17.77
2022-08-14T01:02:46.034Z,15.75
2022-08-14T01:03:53.035Z,17.40
2022-08-14T01:04:54.263Z,16.85
2022-08-14T01:05:52.658Z,18.52
2022-08-14T01:06:55.239Z,13.90
2022-08-14T01:07:57.816Z,15.35
2022-08-14T01:09:59.182Z,16.45
2022-08-14T01:10:57.086Z,15.13
2022-08-14T01:12:02.757Z,18.65
2022-08-14T01:13:01.437Z,18.25
2022-08-14T01:14:01.604Z,13.18
2022-08-14T01:15:16.827Z,17.30
2022-08-14T01:16:17.345Z,14.30
2022-08-14T01:17:19.369Z,17.38
2022-08-14T01:18:37.503Z,17.30
2022-08-14T01:19:53.920Z,15.57
2022-08-14T01:21:09.451Z,15.50
2022-08-14T01:22:12.266Z,16.98
2022-08-14T01:23:15.788Z,19.10
2022-08-14T01:24:15.323Z,15.80
2022-08-14T01:25:26.975Z,21.70
2022-08-14T01:26:35.834Z,16.27
2022-08-14T01:27:45.155Z,13.27
2022-08-14T01:28:57.780Z,12.07
2022-08-14T01:30:00.863Z,12.88
2022-08-14T01:31:02.023Z,15.90
2022-08-14T01:32:04.564Z,14.00
2022-08-14T01:33:07.452Z,16.75
2022-08-14T01:35:18.633Z,16.60
2022-08-14T01:36:04.361Z,20.30
2022-08-14T01:36:39.971Z,11.73
2022-08-14T01:37:38.252Z,14.48
2022-08-14T01:38:44.218Z,15.00
2022-08-14T01:39:45.750Z,15.75
2022-08-14T01:40:42.442Z,16.50
2022-08-14T01:41:39.897Z,11.73
2022-08-14T01:42:36.549Z,14.20
2022-08-14T01:43:43.636Z,13.82
2022-08-14T01:44:58.573Z,14.93
2022-08-14T01:47:21.544Z,14.90
2022-08-14T01:48:20.799Z,12.18
2022-08-14T01:49:17.686Z,13.93
2022-08-14T01:50:17.019Z,12.98
2022-08-14T01:51:19.058Z,12.85
2022-08-14T01:52:34.712Z,13.90
2022-08-14T01:53:35.784Z,14.27
2022-08-14T01:54:37.860Z,17.73
2022-08-14T01:55:36.627Z,15.77
2022-08-14T01:56:37.107Z,17.13
2022-08-14T01:58:00.690Z,15.60
2022-08-14T01:58:57.799Z,17.15
2022-08-14T01:59:56.984Z,18.02
2022-08-14T02:00:55.692Z,16.63
2022-08-14T02:01:59.129Z,14.50
2022-08-14T02:02:57.167Z,18.30
2022-08-14T02:03:57.181Z,21.92
2022-08-14T02:04:57.054Z,20.75
2022-08-14T02:06:00.036Z,21.45
2022-08-14T02:07:17.325Z,20.92
2022-08-14T02:08:35.383Z,21.17
2022-08-14T02:09:35.391Z,25.23
2022-08-14T02:10:35.530Z,21.33
2022-08-14T02:11:42.949Z,16.67
2022-08-14T02:12:41.031Z,18.20
2022-08-14T02:13:39.414Z,17.38
2022-08-14T02:14:40.503Z,19.23
2022-08-14T02:15:59.866Z,17.83
2022-08-14T02:17:16.502Z,18.08
2022-08-14T02:18:15.296Z,22.80
2022-08-14T02:19:15.333Z,19.08
2022-08-14T02:20:14.078Z,17.13
2022-08-14T02:21:12.521Z,17.83
2022-08-14T02:22:09.247Z,18.38
2022-08-14T02:23:08.311Z,17.33
2022-08-14T02:24:06.189Z,18.67
2022-08-14T02:25:23.970Z,17.92
2022-08-14T02:26:30.810Z,17.25
2022-08-14T02:28:24.522Z,18.58
2022-08-14T02:28:57.941Z,15.73
2022-08-14T02:29:59.766Z,15.98
2022-08-14T02:32:00.427Z,19.63
2022-08-14T02:32:57.553Z,18.00
2022-08-14T02:33:56.440Z,15.63
2022-08-14T02:34:53.080Z,16.23
2022-08-14T02:35:53.294Z,22.35
2022-08-14T02:37:03.978Z,15.32
2022-08-14T02:38:04.120Z,17.33
2022-08-14T02:39:00.851Z,15.55
2022-08-14T02:39:57.602Z,16.73
2022-08-14T02:40:54.366Z,16.05
2022-08-14T02:41:57.937Z,17.98
2022-08-14T02:42:57.592Z,17.35
2022-08-14T02:43:54.481Z,17.95
2022-08-14T02:44:57.711Z,19.80
2022-08-14T02:45:54.402Z,16.58
2022-08-14T02:46:54.676Z,17.63
2022-08-14T02:47:58.309Z,19.55
2022-08-14T02:49:02.726Z,16.30
2022-08-14T02:50:02.695Z,15.85
2022-08-14T02:51:00.902Z,17.95
2022-08-14T02:51:58.755Z,21.45
2022-08-14T02:53:03.075Z,23.42
2022-08-14T02:54:01.870Z,27.70
2022-08-14T02:55:00.914Z,35.83
2022-08-14T02:56:03.110Z,35.53
2022-08-14T02:57:13.537Z,34.03
2022-08-14T02:58:29.157Z,37.22
2022-08-14T02:59:29.653Z,56.92
2022-08-14T03:00:33.128Z,58.63
2022-08-14T03:01:31.181Z,48.45
2022-08-14T03:02:56.183Z,45.83
2022-08-14T03:03:56.289Z,50.28
2022-08-14T03:04:55.754Z,59.08
2022-08-14T03:05:54.324Z,52.00
2022-08-14T03:06:57.417Z,56.50
2022-08-14T03:08:04.108Z,57.00
2022-08-14T03:09:01.340Z,52.53
2022-08-14T03:10:27.433Z,61.08
2022-08-14T03:11:14.872Z,84.32
2022-08-14T03:12:12.626Z,67.80
2022-08-14T03:14:19.155Z,64.65
2022-08-14T03:15:16.325Z,55.05
2022-08-14T03:16:20.017Z,52.60
2022-08-14T03:17:24.255Z,64.20
2022-08-14T03:18:31.866Z,71.68
2022-08-14T03:19:29.382Z,67.93
2022-08-14T03:20:29.251Z,65.03
2022-08-14T03:21:26.375Z,69.30
2022-08-14T03:22:23.393Z,64.30
2022-08-14T03:23:24.990Z,54.55
2022-08-14T03:24:23.800Z,60.65
2022-08-14T03:25:22.497Z,82.53
2022-08-14T03:26:30.535Z,66.57
2022-08-14T03:27:35.451Z,61.85
2022-08-14T03:28:51.208Z,74.88
2022-08-14T03:29:48.597Z,65.82
2022-08-14T03:30:46.327Z,59.00
2022-08-14T03:31:43.633Z,97.07
2022-08-14T03:32:44.682Z,90.20
2022-08-14T03:33:43.168Z,84.30
2022-08-14T03:34:52.783Z,83.63
2022-08-14T03:36:00.085Z,75.88
2022-08-14T03:37:51.116Z,80.45
2022-08-14T03:39:11.719Z,69.88
2022-08-14T03:39:38.235Z,64.88
2022-08-14T03:40:41.408Z,89.47
2022-08-14T03:41:38.767Z,69.97
2022-08-14T03:42:36.061Z,79.05
2022-08-14T03:43:33.506Z,82.32
2022-08-14T03:45:19.825Z,79.68
2022-08-14T03:45:49.071Z,84.40
2022-08-14T03:46:54.428Z,91.85
2022-08-14T03:47:58.939Z,95.18
2022-08-14T03:49:01.265Z,78.30
2022-08-14T03:49:59.799Z,94.03
2022-08-14T03:50:56.515Z,100.13
2022-08-14T03:51:53.134Z,93.75
2022-08-14T03:52:55.916Z,99.53
2022-08-14T03:53:58.036Z,84.68
2022-08-14T03:54:54.658Z,82.50
2022-08-14T03:55:51.292Z,79.25
2022-08-14T03:56:50.304Z,82.10
2022-08-14T03:57:47.918Z,79.15
2022-08-14T03:58:49.268Z,83.00
2022-08-14T03:59:46.122Z,82.67
2022-08-14T04:00:44.913Z,79.18
2022-08-14T04:01:45.672Z,77.70
2022-08-14T04:02:53.449Z,82.95
2022-08-14T04:03:54.801Z,85.00
2022-08-14T04:04:53.441Z,92.90
2022-08-14T04:05:50.564Z,87.80
2022-08-14T04:06:48.907Z,77.53
2022-08-14T04:07:50.021Z,85.70
2022-08-14T04:09:07.641Z,69.93
2022-08-14T04:10:07.282Z,72.10
2022-08-14T04:11:08.052Z,70.85
2022-08-14T04:12:08.439Z,60.08
2022-08-14T04:13:10.232Z,67.72
2022-08-14T04:14:07.168Z,59.67
2022-08-14T04:15:05.962Z,63.50
2022-08-14T04:16:13.974Z,66.53
2022-08-14T04:17:11.330Z,70.90
2022-08-14T04:18:09.360Z,72.55
2022-08-14T04:19:10.153Z,70.07
2022-08-14T04:20:08.140Z,70.68
2022-08-14T04:21:06.771Z,72.43
2022-08-14T04:22:04.458Z,70.80
2022-08-14T04:23:01.741Z,65.15
2022-08-14T04:24:01.929Z,68.10
2022-08-14T04:25:02.198Z,70.63
2022-08-14T04:26:04.579Z,67.18
2022-08-14T04:27:05.344Z,68.80
2022-08-14T04:28:05.911Z,66.40
2022-08-14T04:29:14.118Z,62.70
2022-08-14T04:30:12.593Z,61.88
2022-08-14T04:33:02.434Z,60.45
2022-08-14T04:33:02.796Z,58.08
2022-08-14T04:34:01.583Z,58.72
2022-08-14T04:34:58.198Z,69.65
2022-08-14T04:35:57.163Z,62.50
2022-08-14T04:37:12.590Z,62.67
2022-08-14T04:38:36.975Z,58.95
2022-08-14T04:39:57.291Z,62.75
2022-08-14T04:41:13.590Z,60.97
2022-08-14T04:42:28.746Z,59.40
2022-08-14T04:43:39.516Z,63.40
2022-08-14T04:44:37.331Z,57.25
2022-08-14T04:45:36.410Z,54.45
2022-08-14T04:46:55.592Z,66.18
2022-08-14T04:48:12.638Z,58.35
2022-08-14T04:49:09.476Z,62.08
2022-08-14T04:50:11.854Z,59.75
2022-08-14T04:51:11.608Z,68.82
2022-08-14T04:52:15.470Z,63.67
2022-08-14T04:53:23.073Z,69.88
2022-08-14T04:54:27.018Z,67.32
2022-08-14T04:55:24.184Z,70.88
2022-08-14T04:56:31.186Z,71.43
2022-08-14T04:57:31.485Z,70.28
2022-08-14T04:58:32.220Z,73.78
2022-08-14T04:59:29.115Z,68.65
2022-08-14T05:00:27.412Z,72.65
2022-08-14T05:01:25.911Z,76.53
2022-08-14T05:02:25.562Z,82.82
2022-08-14T05:03:34.306Z,79.25
2022-08-14T05:04:34.416Z,63.92
2022-08-14T05:05:37.295Z,76.43
2022-08-14T05:06:38.482Z,68.20
2022-08-14T05:07:54.301Z,78.30
2022-08-14T05:08:59.542Z,76.03
2022-08-14T05:09:57.104Z,75.00
2022-08-14T05:10:56.686Z,82.18
2022-08-14T05:11:53.834Z,78.82
2022-08-14T05:13:14.349Z,75.25
2022-08-14T05:14:17.009Z,78.85
2022-08-14T05:15:29.514Z,72.88
2022-08-14T05:16:31.613Z,74.57
2022-08-14T05:17:32.025Z,68.95
2022-08-14T05:19:19.124Z,62.30
2022-08-14T05:21:04.524Z,63.80
2022-08-14T05:22:00.464Z,67.82
2022-08-14T05:22:31.744Z,69.50
2022-08-14T05:23:31.819Z,74.13
2022-08-14T05:24:29.161Z,82.70
2022-08-14T05:25:26.030Z,72.28
2022-08-14T05:26:29.173Z,85.03
2022-08-14T05:27:25.775Z,80.78
2022-08-14T05:28:31.608Z,78.93
2022-08-14T05:29:29.555Z,86.53
2022-08-14T05:30:27.189Z,79.75
2022-08-14T05:31:24.218Z,77.75
2022-08-14T05:32:36.163Z,74.47
2022-08-14T05:33:35.746Z,80.07
2022-08-14T05:34:32.447Z,83.13
2022-08-14T05:35:30.014Z,79.22
2022-08-14T05:36:30.181Z,82.60
2022-08-14T05:37:29.982Z,82.70
2022-08-14T05:38:35.219Z,75.05
2022-08-14T05:39:32.199Z,85.75
2022-08-14T05:40:28.919Z,83.18
2022-08-14T05:41:27.677Z,86.03
2022-08-14T05:42:42.325Z,83.78
2022-08-14T05:43:49.905Z,79.05
2022-08-14T05:44:47.935Z,77.93
2022-08-14T05:45:46.244Z,66.50
2022-08-14T05:46:42.979Z,89.60
2022-08-14T05:47:41.094Z,80.75
2022-08-14T05:48:43.390Z,81.55
2022-08-14T05:50:38.331Z,60.75
2022-08-14T05:51:38.794Z,74.18
2022-08-14T05:52:39.161Z,85.80
2022-08-14T05:53:36.352Z,72.97
2022-08-14T05:55:35.576Z,69.90
2022-08-14T05:56:39.464Z,67.03
2022-08-14T05:57:46.863Z,75.75
2022-08-14T05:58:45.604Z,67.10
2022-08-14T05:59:42.455Z,74.75
2022-08-14T06:00:42.824Z,68.70
2022-08-14T06:01:40.054Z,75.78
2022-08-14T06:02:36.903Z,69.80
2022-08-14T06:03:33.673Z,64.90
2022-08-14T06:04:30.764Z,58.17
2022-08-14T06:05:29.105Z,59.83
2022-08-14T06:06:26.185Z,53.72
2022-08-14T06:07:22.812Z,52.67
2022-08-14T06:08:35.604Z,49.08
2022-08-14T06:09:36.019Z,49.47
2022-08-14T06:10:37.356Z,50.85
2022-08-14T06:11:34.760Z,46.58
2022-08-14T06:12:55.494Z,49.38
2022-08-14T06:13:50.106Z,49.45
2022-08-14T06:14:48.834Z,49.28
2022-08-14T06:15:46.976Z,44.00
2022-08-14T06:16:45.234Z,49.10
2022-08-14T06:17:58.524Z,50.25
2022-08-14T06:18:56.407Z,44.10
2022-08-14T06:19:56.363Z,43.33
2022-08-14T06:20:54.425Z,44.00
2022-08-14T06:21:58.370Z,44.75
2022-08-14T06:22:56.897Z,39.17
2022-08-14T06:23:53.608Z,40.70
2022-08-14T06:24:50.404Z,46.05
2022-08-14T06:25:52.624Z,42.53
2022-08-14T06:26:51.973Z,40.80
2022-08-14T06:27:54.055Z,39.88
2022-08-14T06:28:52.414Z,43.20
2022-08-14T06:29:50.047Z,38.67
2022-08-14T06:30:49.653Z,39.40
2022-08-14T06:31:47.742Z,37.45
2022-08-14T06:32:52.884Z,36.88
2022-08-14T06:35:09.582Z,41.25
2022-08-14T06:35:13.123Z,35.00
2022-08-14T06:36:10.142Z,33.17
2022-08-14T06:37:08.159Z,35.63
2022-08-14T06:38:05.944Z,33.03
2022-08-14T06:39:03.655Z,33.35
2022-08-14T06:40:05.206Z,31.27
2022-08-14T06:41:13.387Z,29.55
2022-08-14T06:42:32.305Z,33.45
2022-08-14T06:43:30.339Z,32.97
2022-08-14T06:44:30.785Z,29.20
2022-08-14T06:45:30.283Z,31.13
2022-08-14T06:46:32.467Z,33.20
2022-08-14T06:47:34.671Z,34.22
2022-08-14T06:48:32.721Z,34.75
2022-08-14T06:49:42.807Z,35.83
2022-08-14T06:51:46.856Z,33.25
2022-08-14T06:52:50.387Z,34.95
2022-08-14T06:53:48.963Z,33.83
2022-08-14T06:54:45.848Z,29.90
2022-08-14T06:55:58.359Z,30.73
2022-08-14T06:56:58.976Z,34.13
2022-08-14T06:57:57.772Z,29.85
2022-08-14T06:58:54.773Z,32.33
2022-08-14T06:59:52.514Z,29.48
2022-08-14T07:01:08.119Z,35.50
2022-08-14T07:02:23.403Z,29.95
2022-08-14T07:03:44.559Z,32.92
2022-08-14T07:05:00.784Z,35.08
2022-08-14T07:06:02.308Z,36.85
2022-08-14T07:07:08.445Z,33.42
2022-08-14T07:08:05.985Z,32.70
2022-08-14T07:09:05.090Z,34.05
2022-08-14T07:10:03.001Z,30.45
2022-08-14T07:11:01.428Z,35.75
2022-08-14T07:11:58.294Z,34.53
2022-08-14T07:13:03.606Z,31.05
2022-08-14T07:14:01.203Z,28.33
2022-08-14T07:15:01.431Z,34.35
2022-08-14T07:16:00.506Z,31.73
2022-08-14T07:17:02.061Z,26.15
2022-08-14T07:18:01.165Z,26.35
2022-08-14T07:18:58.104Z,23.30
2022-08-14T07:19:55.490Z,24.45
2022-08-14T07:20:54.468Z,23.95
2022-08-14T07:21:51.165Z,20.80
2022-08-14T07:22:56.424Z,18.60
2022-08-14T07:23:53.630Z,18.17
2022-08-14T07:24:50.297Z,18.20
2022-08-14T07:25:47.873Z,15.65
2022-08-14T07:26:44.517Z,16.95
2022-08-14T07:27:42.840Z,18.83
2022-08-14T07:28:43.228Z,18.17
2022-08-14T07:29:40.434Z,15.88
2022-08-14T07:30:37.162Z,18.60
2022-08-14T07:31:38.844Z,14.87
2022-08-14T07:32:35.562Z,18.40
2022-08-14T07:33:41.855Z,14.93
2022-08-14T07:34:41.106Z,14.30
2022-08-14T07:35:57.313Z,14.02
2022-08-14T07:37:00.798Z,11.05
2022-08-14T07:37:57.741Z,13.05
2022-08-14T07:38:55.972Z,11.93
2022-08-14T07:39:52.828Z,10.88
2022-08-14T07:40:52.914Z,10.70
2022-08-14T07:41:49.919Z,11.60
2022-08-14T07:42:46.519Z,12.15
2022-08-14T07:43:55.483Z,12.60
2022-08-14T07:44:52.831Z,11.30
2022-08-14T07:45:53.878Z,10.95
2022-08-14T07:46:50.917Z,10.73
2022-08-14T07:47:47.620Z,10.98
2022-08-14T07:48:44.800Z,10.55
2022-08-14T07:50:04.923Z,11.85
2022-08-14T07:51:03.809Z,9.75
2022-08-14T07:52:08.230Z,8.88
2022-08-14T07:53:06.968Z,9.63
2022-08-14T07:54:10.892Z,8.40
2022-08-14T07:55:09.715Z,10.27
2022-08-14T07:56:21.982Z,12.88
2022-08-14T07:57:25.151Z,10.27
2022-08-14T07:58:34.123Z,11.18
2022-08-14T07:59:41.056Z,9.18
2022-08-14T08:00:38.884Z,15.02
2022-08-14T08:01:35.743Z,9.73
2022-08-14T08:02:32.743Z,9.10
2022-08-14T08:03:35.095Z,10.10
2022-08-14T08:04:34.039Z,9.52
2022-08-14T08:05:31.437Z,10.32
2022-08-14T08:06:28.599Z,10.98
2022-08-14T08:07:30.055Z,9.85
2022-08-14T08:08:31.419Z,12.55
2022-08-14T08:09:32.391Z,12.90
2022-08-14T08:11:01.407Z,14.30
2022-08-14T08:11:54.444Z,11.38
2022-08-14T08:12:56.949Z,10.38
2022-08-14T08:13:55.608Z,12.25
2022-08-14T08:14:56.015Z,8.68
2022-08-14T08:15:59.045Z,11.23
2022-08-14T08:16:57.261Z,12.13
2022-08-14T08:18:03.863Z,12.20
2022-08-14T08:19:10.056Z,10.25
2022-08-14T08:20:15.966Z,10.30
2022-08-14T08:21:13.559Z,8.73
2022-08-14T08:22:15.180Z,10.35
2022-08-14T08:23:20.634Z,10.45
2022-08-14T08:24:18.436Z,8.45
2022-08-14T08:25:18.118Z,8.70
2022-08-14T08:26:15.564Z,7.53
2022-08-14T08:27:21.943Z,8.95
2022-08-14T08:28:25.293Z,7.78
2022-08-14T08:29:29.299Z,6.68
2022-08-14T08:30:28.092Z,9.10
2022-08-14T08:31:33.051Z,9.13
2022-08-14T08:32:42.056Z,6.97
2022-08-14T08:33:40.259Z,7.15
2022-08-14T08:34:47.218Z,7.13
2022-08-14T08:35:47.211Z,7.43
2022-08-14T08:36:47.118Z,5.97
2022-08-14T08:37:44.424Z,6.78
2022-08-14T08:39:18.665Z,9.25
2022-08-14T08:40:02.016Z,5.80
2022-08-14T08:41:01.234Z,4.88
2022-08-14T08:41:58.335Z,4.90
2022-08-14T08:42:55.318Z,5.68
2022-08-14T08:44:05.548Z,4.93
2022-08-14T08:45:02.450Z,4.90
2022-08-14T08:46:26.194Z,6.55
2022-08-14T08:47:22.819Z,4.90
2022-08-14T08:48:20.826Z,5.20
2022-08-14T08:49:59.644Z,5.15
2022-08-14T08:51:02.796Z,4.68
2022-08-14T08:52:04.329Z,4.93
2022-08-14T08:53:05.535Z,4.97
2022-08-14T08:54:03.990Z,6.38
2022-08-14T08:55:04.269Z,7.00
2022-08-14T08:56:02.209Z,8.60
2022-08-14T08:56:59.890Z,6.57
2022-08-14T08:58:03.986Z,6.03
2022-08-14T08:59:02.550Z,8.90
2022-08-14T09:00:02.468Z,9.32
2022-08-14T09:01:07.186Z,6.88
2022-08-14T09:02:10.431Z,5.03
2022-08-14T09:03:10.714Z,7.15
2022-08-14T09:04:07.596Z,7.47
2022-08-14T09:05:11.576Z,5.85
2022-08-14T09:06:53.843Z,5.38
2022-08-14T09:07:28.020Z,7.47
2022-08-14T09:08:33.046Z,6.70
2022-08-14T09:09:33.892Z,4.78
2022-08-14T09:10:30.692Z,6.35
2022-08-14T09:11:27.350Z,6.68
2022-08-14T09:12:24.537Z,4.90
2022-08-14T09:13:26.942Z,7.82
2022-08-14T09:14:29.695Z,6.60
2022-08-14T09:15:42.412Z,8.20
2022-08-14T09:16:41.556Z,5.63
2022-08-14T09:17:43.760Z,8.40
2022-08-14T09:18:41.219Z,8.02
2022-08-14T09:19:39.279Z,5.93
2022-08-14T09:20:43.837Z,5.95
2022-08-14T09:21:42.497Z,5.30
2022-08-14T09:22:42.630Z,7.35
2022-08-14T09:24:26.886Z,8.43
2022-08-14T09:25:03.023Z,8.68
2022-08-14T09:26:01.715Z,5.90
2022-08-14T09:26:59.375Z,5.18
2022-08-14T09:27:57.314Z,7.75
2022-08-14T09:28:53.988Z,8.00
2022-08-14T09:29:54.116Z,5.43
2022-08-14T09:30:54.516Z,5.00
2022-08-14T09:31:57.673Z,4.90
2022-08-14T09:33:09.090Z,4.68
2022-08-14T09:34:27.288Z,4.55
2022-08-14T09:35:36.905Z,4.50
2022-08-14T09:37:01.319Z,4.47
2022-08-14T09:37:57.893Z,5.82
2022-08-14T09:39:23.472Z,7.72
2022-08-14T09:40:37.138Z,6.55
2022-08-14T09:42:20.281Z,5.45
2022-08-14T09:43:38.727Z,4.43
2022-08-14T09:44:54.517Z,4.72
2022-08-14T09:45:53.916Z,4.70
2022-08-14T09:46:55.431Z,5.00
2022-08-14T09:47:56.944Z,5.05
2022-08-14T09:49:05.637Z,4.60
2022-08-14T09:50:02.302Z,5.22
2022-08-14T09:52:06.836Z,6.65
2022-08-14T09:54:17.709Z,9.55
2022-08-14T09:54:58.505Z,6.30
2022-08-14T09:55:59.731Z,5.35
2022-08-14T09:56:57.432Z,6.03
2022-08-14T09:58:19.879Z,9.18
2022-08-14T09:59:24.427Z,6.72
2022-08-14T10:01:02.008Z,5.83
2022-08-14T10:02:03.364Z,5.88
2022-08-14T10:03:05.270Z,6.07
2022-08-14T10:04:34.769Z,5.43
2022-08-14T10:05:39.127Z,4.85
2022-08-14T10:06:45.166Z,5.00
2022-08-14T10:07:53.906Z,5.78
2022-08-14T10:09:04.587Z,6.85
2022-08-14T10:10:02.481Z,4.03
2022-08-14T10:11:02.999Z,4.78
2022-08-14T10:12:00.104Z,6.65
2022-08-14T10:12:58.362Z,4.00
2022-08-14T10:13:58.700Z,3.60
2022-08-14T10:14:55.766Z,4.53
2022-08-14T10:15:59.798Z,3.67
2022-08-14T10:16:58.511Z,4.03
2022-08-14T10:18:09.639Z,5.60
2022-08-14T10:19:19.244Z,4.72
2022-08-14T10:20:39.323Z,5.38
2022-08-14T10:21:58.867Z,4.38
2022-08-14T10:23:22.174Z,4.40
2022-08-14T10:24:24.481Z,4.53
2022-08-14T10:25:41.175Z,4.60
2022-08-14T10:26:40.216Z,4.90
2022-08-14T10:27:38.172Z,3.72
2022-08-14T10:29:18.638Z,4.60
2022-08-14T10:30:01.128Z,6.47
2022-08-14T10:30:57.867Z,4.18
2022-08-14T10:32:00.838Z,4.97
2022-08-14T10:32:57.714Z,4.88
2022-08-14T10:34:13.185Z,5.35
2022-08-14T10:35:14.267Z,4.15
2022-08-14T10:36:26.735Z,4.03
2022-08-14T10:37:40.056Z,4.47
2022-08-14T10:38:37.290Z,4.40
2022-08-14T10:39:38.688Z,4.35
2022-08-14T10:40:52.059Z,5.22
2022-08-14T10:42:16.719Z,7.18
2022-08-14T10:43:26.215Z,6.82
2022-08-14T10:44:29.880Z,4.95
2022-08-14T10:45:35.866Z,6.43
2022-08-14T10:47:39.119Z,4.40
2022-08-14T10:48:37.191Z,4.18
2022-08-14T10:49:48.591Z,4.43
2022-08-14T10:50:49.353Z,4.20
2022-08-14T10:52:04.127Z,4.25
2022-08-14T10:53:05.935Z,5.45
2022-08-14T10:54:16.336Z,7.45
2022-08-14T10:55:16.177Z,6.63
2022-08-14T10:56:21.410Z,7.43
2022-08-14T10:57:28.801Z,5.88
2022-08-14T10:58:32.947Z,6.55
2022-08-14T10:59:43.359Z,4.15
2022-08-14T11:00:47.265Z,4.28
2022-08-14T11:01:44.927Z,4.30
2022-08-14T11:02:54.110Z,4.25
2022-08-14T11:03:55.902Z,3.85
2022-08-14T11:05:04.705Z,4.00
2022-08-14T11:06:14.582Z,4.65
2022-08-14T11:07:19.263Z,11.90
2022-08-14T11:08:29.921Z,7.72
2022-08-14T11:09:31.629Z,4.78
2022-08-14T11:10:52.772Z,4.70
2022-08-14T11:12:36.027Z,4.78
2022-08-14T11:14:22.880Z,6.18
2022-08-14T11:15:25.639Z,4.20
2022-08-14T11:16:23.083Z,6.07
2022-08-14T11:17:25.803Z,5.22
2022-08-14T11:18:30.542Z,6.82
2022-08-14T11:19:33.991Z,4.60
2022-08-14T11:20:32.093Z,4.10
2022-08-14T11:21:34.245Z,4.38
2022-08-14T11:22:56.625Z,4.85
2022-08-14T11:23:53.540Z,5.38
2022-08-14T11:24:56.630Z,10.10
2022-08-14T11:25:54.791Z,6.10
2022-08-14T11:26:51.967Z,5.18
2022-08-14T11:27:50.664Z,4.40
2022-08-14T11:28:50.032Z,5.40
2022-08-14T11:29:52.559Z,3.90
2022-08-14T11:30:58.589Z,9.70
2022-08-14T11:32:00.402Z,4.93
2022-08-14T11:32:58.560Z,5.05
2022-08-14T11:33:57.886Z,12.43
2022-08-14T11:34:55.571Z,3.88
2022-08-14T11:35:52.273Z,3.13
2022-08-14T11:37:02.934Z,3.40
2022-08-14T11:38:07.875Z,4.03
2022-08-14T11:39:09.805Z,3.97
2022-08-14T11:40:16.287Z,4.80
2022-08-14T11:41:17.188Z,6.97
2022-08-14T11:42:56.795Z,3.35
2022-08-14T11:43:57.807Z,4.80
2022-08-14T11:45:00.896Z,5.53
2022-08-14T11:45:58.375Z,4.45
2022-08-14T11:47:05.863Z,4.03
2022-08-14T11:49:04.265Z,3.75
2022-08-14T11:49:42.623Z,3.72
2022-08-14T11:50:39.460Z,3.90
2022-08-14T11:51:53.404Z,6.07
2022-08-14T11:52:53.843Z,3.38
2022-08-14T11:54:06.344Z,2.88
2022-08-14T11:55:09.221Z,3.85
2022-08-14T11:56:06.423Z,3.13
2022-08-14T11:57:05.228Z,2.83
2022-08-14T11:58:05.752Z,3.25
2022-08-14T11:59:03.939Z,3.22
2022-08-14T12:00:03.065Z,2.92
2022-08-14T12:01:04.155Z,2.92
2022-08-14T12:02:38.997Z,2.53
2022-08-14T12:03:46.514Z,4.07
2022-08-14T12:04:50.921Z,5.47
2022-08-14T12:05:48.340Z,9.68
2022-08-14T12:06:52.508Z,4.57
2022-08-14T12:07:50.681Z,3.15
2022-08-14T12:08:50.999Z,2.75
2022-08-14T12:09:56.243Z,3.10
2022-08-14T12:10:58.685Z,3.85
2022-08-14T12:11:56.150Z,4.20
2022-08-14T12:12:56.473Z,2.90
2022-08-14T12:13:56.121Z,3.05
2022-08-14T12:14:56.452Z,2.88
2022-08-14T12:16:06.383Z,3.05
2022-08-14T12:17:12.676Z,3.90
2022-08-14T12:18:11.199Z,4.22
2022-08-14T12:19:16.190Z,3.60
2022-08-14T12:20:14.935Z,3.40
2022-08-14T12:21:19.343Z,4.25
2022-08-14T12:22:25.837Z,3.53
2022-08-14T12:23:27.619Z,5.07
2022-08-14T12:24:36.025Z,3.90
2022-08-14T12:25:35.178Z,2.92
2022-08-14T12:26:40.646Z,3.40
2022-08-14T12:27:52.848Z,4.28
2022-08-14T12:29:00.062Z,3.50
2022-08-14T12:29:57.558Z,4.22
2022-08-14T12:30:56.669Z,3.67
2022-08-14T12:32:03.893Z,3.80
2022-08-14T12:33:03.587Z,3.65
2022-08-14T12:34:02.895Z,3.90
2022-08-14T12:35:07.531Z,6.00
2022-08-14T12:36:10.553Z,4.95
2022-08-14T12:37:08.984Z,4.75
2022-08-14T12:38:05.759Z,4.68
2022-08-14T12:39:06.056Z,6.18
2022-08-14T12:40:15.655Z,3.90
2022-08-14T12:41:24.110Z,8.85
2022-08-14T12:42:37.942Z,4.80
2022-08-14T12:43:48.396Z,3.72
2022-08-14T12:44:48.487Z,4.50
2022-08-14T12:45:55.573Z,4.00
2022-08-14T12:47:06.247Z,7.47
2022-08-14T12:48:21.202Z,3.65
2022-08-14T12:49:25.954Z,5.70
2022-08-14T12:50:23.024Z,9.18
2022-08-14T12:51:27.294Z,7.95
2022-08-14T12:52:41.541Z,3.55
2022-08-14T12:53:50.698Z,4.20
2022-08-14T12:55:06.499Z,3.20
2022-08-14T12:56:21.983Z,3.25
2022-08-14T12:57:23.585Z,2.90
2022-08-14T12:58:35.546Z,3.15
2022-08-14T12:59:42.812Z,3.20
2022-08-14T13:01:16.067Z,2.78
2022-08-14T13:02:11.220Z,3.42
2022-08-14T13:03:10.408Z,2.72
2022-08-14T13:04:10.102Z,3.60
2022-08-14T13:05:09.776Z,2.92
2022-08-14T13:06:06.704Z,4.22
2022-08-14T13:07:07.382Z,2.97
2022-08-14T13:08:06.387Z,2.63
2022-08-14T13:09:28.036Z,2.80
2022-08-14T13:10:35.126Z,2.83
2022-08-14T13:11:47.126Z,2.70
2022-08-14T13:13:15.475Z,2.95
2022-08-14T13:14:17.198Z,3.03
2022-08-14T13:15:15.952Z,3.40
2022-08-14T13:16:20.769Z,3.22
2022-08-14T13:17:39.486Z,2.72
2022-08-14T13:18:39.876Z,2.80
2022-08-14T13:19:40.656Z,3.20
2022-08-14T13:20:37.818Z,3.22
2022-08-14T13:21:58.828Z,3.65
2022-08-14T13:22:56.111Z,3.97
2022-08-14T13:23:54.813Z,2.70
2022-08-14T13:24:51.582Z,2.70
2022-08-14T13:25:56.274Z,2.95
2022-08-14T13:27:00.504Z,2.80
2022-08-14T13:27:59.215Z,2.75
2022-08-14T13:29:02.481Z,3.25
2022-08-14T13:30:03.294Z,2.75
2022-08-14T13:31:11.879Z,2.80
2022-08-14T13:32:11.822Z,8.38
2022-08-14T13:33:14.955Z,9.77
2022-08-14T13:34:14.358Z,4.20
2022-08-14T13:35:16.334Z,3.28
2022-08-14T13:36:24.677Z,4.88
2022-08-14T13:37:31.867Z,3.28
2022-08-14T13:38:29.267Z,3.53
2022-08-14T13:39:30.002Z,3.47
2022-08-14T13:40:30.400Z,3.22
2022-08-14T13:41:36.474Z,3.08
2022-08-14T13:42:33.599Z,2.70
2022-08-14T13:43:36.481Z,3.40
2022-08-14T13:44:35.198Z,3.05
2022-08-14T13:45:59.476Z,3.90
2022-08-14T13:46:49.604Z,3.88
2022-08-14T13:47:48.747Z,3.53
2022-08-14T13:48:50.289Z,3.20
2022-08-14T13:49:57.614Z,3.30
2022-08-14T13:50:57.024Z,3.47
2022-08-14T13:51:58.977Z,4.15
2022-08-14T13:52:59.693Z,5.40
2022-08-14T13:54:10.507Z,3.55
2022-08-14T13:55:09.715Z,3.88
2022-08-14T13:56:14.738Z,3.35
2022-08-14T13:57:13.776Z,3.97
2022-08-14T13:58:33.524Z,3.17
2022-08-14T13:59:38.305Z,3.38
2022-08-14T14:00:53.070Z,3.00